Latest Coastal Weather Observations for Ceduna

IDS60701

Issued at 11:51 am CST Tuesday 28 June 2022 (issued every 10 minutes, with the page automatically refreshed every 10 minutes)

About coastal observations | Map of coastal stations | Coastal observations for SA | Marine services | Other Formats
Station Details ID: 018012 Name: CEDUNA AMO Lat: -32.13 Lon: 133.70 Height: 15.3 m
Data from the previous 72 hours. | See also: Recent months at Ceduna
Date/Time
CST
Wind Sea
Height
m
Swell Vis
km
Cloud Weather Temp
°C
Press
MSL
hPa
Rain since
9am
mm
Dir  Spd
kts
Gust
kts
Height
m
Period
s
Dir
28/11:30am N 14 18 - - - - 10 - - 15.9 1027.6 0.0
28/11:00am N 14 21 - - - - 10 - - 15.1 1028.1 0.0
28/10:30am N 14 19 - - - - 10 - - 13.7 1028.4 0.0
28/10:00am N 10 14 - - - - 10 - - 12.4 1028.7 0.0
28/09:30am N 9 14 - - - - 10 - - 11.0 1028.8 0.0
28/09:00am N 9 12 - - - - 10 - - 9.2 1028.9 0.0
28/08:30am NNE 9 11 - - - - 10 - - 7.6 1028.9 0.0
28/08:00am NNE 9 10 - - - - 10 - - 6.7 1028.9 0.0
28/07:30am N 9 11 - - - - 10 - - 6.7 1028.8 0.0
28/07:00am N 8 10 - - - - 10 - - 6.3 1028.7 0.0
28/06:30am N 7 8 - - - - 10 - - 6.1 1028.5 0.0
28/06:00am N 7 8 - - - - 10 - - 6.0 1028.4 0.0
28/05:30am NNE 8 10 - - - - 10 - - 6.1 1028.0 0.0
28/05:00am NNE 5 6 - - - - 10 - - 5.5 1027.9 0.0
28/04:30am NNE 6 8 - - - - 10 - - 6.8 1027.9 0.0
28/04:00am NNE 7 8 - - - - 10 - - 6.9 1027.9 0.0
28/03:30am NNE 7 9 - - - - 10 - - 6.9 1028.0 0.0
28/03:00am NNE 7 8 - - - - 10 - - 7.5 1028.1 0.0
28/02:30am NE 7 9 - - - - 10 - - 7.4 1028.5 0.0
28/02:00am NE 9 9 - - - - 10 - - 7.0 1028.5 0.0
28/01:30am NE 9 9 - - - - 10 - - 6.9 1028.5 0.0
28/01:00am NE 8 8 - - - - 10 - - 6.5 1028.8 0.0
28/12:30am NE 7 7 - - - - 10 - - 6.1 1029.1 0.0
28/12:00am NE 7 8 - - - - 10 - - 6.9 1029.4 0.0
 
Date/Time
CST
Wind Sea
Height
m
Swell Vis
km
Cloud Weather Temp
°C
Press
MSL
hPa
Rain since
9am
mm
Dir  Spd
kts
Gust
kts
Height
m
Period
s
Dir
27/11:30pm NE 8 8 - - - - 10 - - 7.1 1029.6 0.0
27/11:00pm NE 8 10 - - - - 10 - - 8.1 1029.8 0.0
27/10:30pm NE 8 9 - - - - 10 - - 8.1 1029.9 0.0
27/10:00pm ENE 9 10 - - - - 10 - - 7.6 1030.1 0.0
27/09:30pm ENE 9 10 - - - - 10 - - 8.3 1030.4 0.0
27/09:00pm ESE 8 10 - - - - 10 - - 7.9 1030.6 0.0
27/08:30pm ESE 8 9 - - - - 10 - - 9.0 1030.6 0.0
27/08:00pm ESE 9 10 - - - - 10 - - 10.2 1030.7 0.0
27/07:30pm SE 7 8 - - - - 10 - - 8.4 1030.8 0.0
27/07:00pm SE 6 7 - - - - 10 - - 9.3 1030.8 0.0
27/06:30pm SSE 6 7 - - - - 10 - - 10.7 1030.6 0.0
27/06:00pm SSE 7 8 - - - - 10 - - 11.7 1030.3 0.0
27/05:30pm SE 7 9 - - - - 10 - - 13.1 1030.1 0.0
27/05:00pm SSE 7 8 - - - - 10 - - 14.8 1030.3 0.0
27/04:30pm SSE 7 9 - - - - 10 - - 15.6 1030.3 0.0
27/04:00pm S 7 8 - - - - 10 - - 16.1 1030.4 0.0
27/03:30pm S 7 9 - - - - 10 - - 16.6 1030.6 0.0
27/03:00pm SSW 8 11 - - - - 10 - - 16.4 1031.0 0.0
27/02:30pm NNE 4 8 - - - - 10 - - 17.9 1031.1 0.0
27/02:00pm NNE 6 10 - - - - 10 - - 17.6 1031.5 0.0
27/01:30pm NE 6 15 - - - - 10 - - 17.2 1032.1 0.0
27/01:00pm NNE 6 8 - - - - 10 - - 17.1 1032.4 0.0
27/12:30pm NE 6 8 - - - - 10 - - 16.4 1033.0 0.0
27/12:00pm NE 8 11 - - - - 10 - - 15.8 1033.5 0.0
27/11:30am NE 8 11 - - - - 10 - - 14.8 1033.9 0.0
27/11:00am NE 7 9 - - - - 10 - - 14.2 1034.5 0.0
27/10:30am NNE 7 9 - - - - 10 - - 13.3 1034.7 0.0
27/10:00am NNE 5 7 - - - - 10 - - 11.6 1035.1 0.0
27/09:30am NE 5 6 - - - - 10 - - 9.9 1034.9 0.0
27/09:00am NE 5 6 - - - - 10 - - 8.1 1034.6 0.2
27/08:37am NE 7 8 - - - - 10 Partly cloudy - 6.6 1034.4 0.2
27/08:32am NE 7 8 - - - - 10 Partly cloudy - 6.3 1034.3 0.2
27/08:30am NE 6 8 - - - - 10 Partly cloudy - 6.1 1034.3 0.2
27/08:00am NE 5 6 - - - - 1 Cloudy - 2.9 1034.2 0.2
27/07:42am NE 4 4 - - - - 1 Cloudy - 1.9 1034.1 0.2
27/07:30am NE 2 4 - - - - 0.6 Cloudy - 1.7 1034.1 0.2
27/07:01am ENE 1 4 - - - - 0.9 Partly cloudy - 2.0 1033.9 0.2
27/07:00am ENE 2 4 - - - - 1 Partly cloudy - 2.0 1033.9 0.2
27/06:51am ENE 3 4 - - - - 0.9 Partly cloudy - 1.9 1033.7 0.2
27/06:30am NE 5 6 - - - - 1 Partly cloudy - 2.6 1033.5 0.2
27/06:21am ENE 4 5 - - - - 1 Cloudy - 2.5 1033.4 0.2
27/06:08am NE 3 4 - - - - 0.9 Partly cloudy - 2.0 1033.3 0.2
27/06:00am NE 2 4 - - - - 1 Partly cloudy - 2.2 1033.3 0.2
27/05:30am ENE 3 5 - - - - 1 Cloudy - 2.9 1033.1 0.2
27/05:23am ENE 5 5 - - - - 1 Cloudy - 2.5 1033.1 0.2
27/05:11am ENE 5 6 - - - - 0.9 Cloudy - 2.0 1033.1 0.2
27/05:00am ENE 4 5 - - - - 2 Cloudy - 1.6 1033.1 0.2
27/04:38am CALM 0 0 - - - - 1 Cloudy - 2.9 1033.0 0.2
27/04:30am CALM 0 0 - - - - 0.5 Cloudy - 2.7 1033.1 0.2
27/04:18am NE 3 4 - - - - 0.9 Cloudy - 1.9 1033.0 0.2
27/04:17am NE 3 4 - - - - 1 Cloudy - 1.9 1033.0 0.2
27/04:00am NE 4 5 - - - - 0.8 Cloudy - 3.9 1033.1 0.2
27/03:56am NE 3 4 - - - - 0.9 Cloudy - 4.2 1033.1 0.2
27/03:38am ENE 4 5 - - - - 1 Cloudy - 4.1 1033.2 0.2
27/03:30am ENE 5 5 - - - - 0.8 Cloudy - 2.1 1033.2 0.2
27/03:09am NE 5 5 - - - - 0.9 Partly cloudy - 3.4 1033.4 0.2
27/03:05am NE 5 5 - - - - 2 Partly cloudy - 3.5 1033.4 0.2
27/03:03am NE 4 5 - - - - 4 Partly cloudy - 3.5 1033.4 0.2
27/03:00am NE 3 4 - - - - 10 Partly cloudy - 3.5 1033.4 0.2
27/02:36am NE 3 4 - - - - 10 Partly cloudy - 3.0 1033.5 0.2
27/02:30am NE 4 5 - - - - 10 Partly cloudy - 2.9 1033.5 0.2
27/02:18am NE 4 5 - - - - 10 Partly cloudy - 3.1 1033.5 0.2
27/02:00am NE 5 5 - - - - 1 Partly cloudy - 3.4 1033.5 0.2
27/01:57am NE 4 5 - - - - 1 Partly cloudy - 3.7 1033.5 0.2
27/01:39am NE 3 4 - - - - 0.9 Cloudy - 4.5 1033.5 0.2
27/01:30am NE 3 5 - - - - 4 Partly cloudy - 4.7 1033.6 0.2
27/01:25am NE 3 4 - - - - 5 Partly cloudy - 4.3 1033.6 0.2
27/01:22am NE 4 4 - - - - 6 Partly cloudy - 3.9 1033.6 0.2
27/01:21am NE 4 4 - - - - 7 Partly cloudy - 3.7 1033.6 0.2
27/01:00am NE 3 5 - - - - 2 - - 4.1 1033.7 0.2
27/12:56am NE 3 4 - - - - 4 - - 3.8 1033.7 0.2
27/12:30am NE 2 4 - - - - 10 Partly cloudy - 5.0 1033.6 0.2
27/12:00am NE 5 6 - - - - 10 - - 5.5 1033.5 0.2
 
Date/Time
CST
Wind Sea
Height
m
Swell Vis
km
Cloud Weather Temp
°C
Press
MSL
hPa
Rain since
9am
mm
Dir  Spd
kts
Gust
kts
Height
m
Period
s
Dir
26/11:42pm E 5 6 - - - - 10 - - 4.3 1033.4 0.2
26/11:30pm E 4 5 - - - - 3 - - 4.8 1033.4 0.2
26/11:10pm ENE 4 6 - - - - 5 - - 4.4 1033.4 0.2
26/11:00pm NE 2 3 - - - - 10 - - 5.2 1033.4 0.2
26/10:30pm ENE 4 5 - - - - 10 Partly cloudy - 4.7 1033.1 0.2
26/10:00pm NE 4 5 - - - - 10 - - 5.7 1032.9 0.2
26/09:30pm ENE 4 5 - - - - 10 - - 5.5 1032.8 0.2
26/09:00pm ENE 5 5 - - - - 10 - - 6.5 1032.6 0.2
26/08:30pm ENE 5 5 - - - - 10 - - 8.1 1032.4 0.2
26/08:00pm ENE 4 5 - - - - 10 - - 9.4 1032.3 0.2
26/07:30pm CALM 0 0 - - - - 10 - - 10.5 1032.2 0.2
26/07:00pm SSE 5 6 - - - - 10 - - 11.0 1032.0 0.2
26/06:30pm S 7 11 - - - - 10 - - 12.1 1031.9 0.2
26/06:00pm S 5 6 - - - - 10 - - 12.0 1031.4 0.2
26/05:30pm S 5 7 - - - - 10 - - 13.6 1031.1 0.2
26/05:00pm S 7 9 - - - - 10 - - 15.0 1030.8 0.2
26/04:30pm S 9 11 - - - - 10 Partly cloudy - 15.6 1030.7 0.2
26/04:00pm S 11 17 - - - - 10 Partly cloudy - 14.7 1030.5 0.0
26/03:30pm S 9 11 - - - - 10 Partly cloudy - 15.6 1030.3 0.0
26/03:00pm SSW 8 11 - - - - 10 Mostly clear - 16.7 1030.3 0.0
26/02:30pm SW 7 9 - - - - 10 - - 16.6 1030.1 0.0
26/02:00pm SSW 7 9 - - - - 10 - - 16.4 1030.1 0.0
26/01:30pm SSW 6 9 - - - - 10 Partly cloudy - 16.1 1030.0 0.0
26/01:00pm WSW 3 6 - - - - 10 - - 16.2 1030.1 0.0
26/12:30pm WSW 6 8 - - - - 10 Partly cloudy - 15.6 1030.6 0.0
26/12:00pm SW 5 7 - - - - 10 Mostly cloudy Rain 15.7 1030.8 0.0
26/11:30am SW 6 9 - - - - 9 Partly cloudy - 14.9 1031.1 0.0
26/11:00am NW 4 6 - - - - 10 - - 15.5 1031.3 0.0
26/10:30am NNW 4 6 - - - - 10 - - 14.3 1031.3 0.0
26/10:00am NW 5 7 - - - - 10 Partly cloudy - 12.4 1031.2 0.0
26/09:30am NNW 5 6 - - - - 10 - - 10.8 1030.8 0.0
26/09:00am N 4 5 - - - - 10 - - 8.9 1030.3 0.0
26/08:30am N 5 5 - - - - 10 - - 6.8 1030.2 0.0
26/08:00am N 6 6 - - - - 10 Partly cloudy - 5.9 1029.7 0.0
26/07:30am N 5 6 - - - - 10 Partly cloudy - 5.7 1029.5 0.0
26/07:00am N 6 7 - - - - 10 Partly cloudy - 5.7 1029.2 0.0
26/06:30am N 4 5 - - - - 10 - - 5.6 1028.7 0.0
26/06:00am N 4 4 - - - - 10 - - 6.0 1028.1 0.0
26/05:30am N 5 5 - - - - 10 - - 5.4 1027.8 0.0
26/05:00am N 7 7 - - - - 10 - - 5.8 1027.7 0.0
26/04:30am N 6 6 - - - - 10 - - 6.6 1027.7 0.0
26/04:00am N 6 7 - - - - 10 - - 6.3 1027.8 0.0
26/03:30am N 6 7 - - - - 10 Partly cloudy - 6.4 1027.6 0.0
26/03:00am CALM 0 0 - - - - 10 Mostly cloudy - 6.1 1027.5 0.0
26/02:30am NNW 5 6 - - - - 10 Partly cloudy - 6.9 1027.5 0.0
26/02:00am NNW 5 6 - - - - 10 - - 6.5 1027.4 0.0
26/01:30am N 5 5 - - - - 10 - - 6.7 1027.5 0.0
26/01:00am N 4 5 - - - - 10 - - 6.5 1027.6 0.0
26/12:30am N 5 6 - - - - 10 - - 6.9 1027.7 0.0
26/12:00am N 6 6 - - - - 10 - - 7.0 1027.7 0.0
 
Date/Time
CST
Wind Sea
Height
m
Swell Vis
km
Cloud Weather Temp
°C
Press
MSL
hPa
Rain since
9am
mm
Dir  Spd
kts
Gust
kts
Height
m
Period
s
Dir
25/11:30pm N 6 7 - - - - 10 - - 7.9 1027.7 0.0
25/11:00pm N 4 5 - - - - 10 Partly cloudy - 7.6 1027.6 0.0
25/10:30pm N 3 4 - - - - 10 Partly cloudy - 7.7 1027.5 0.0
25/10:00pm N 5 6 - - - - 10 - - 8.0 1027.2 0.0
25/09:30pm N 4 5 - - - - 10 - - 8.1 1027.2 0.0
25/09:00pm N 4 5 - - - - 10 - - 8.6 1027.0 0.0
25/08:30pm W 3 4 - - - - 10 - - 9.9 1026.9 0.0
25/08:00pm W 4 5 - - - - 10 - - 11.3 1026.7 0.0
25/07:30pm W 3 4 - - - - 10 Partly cloudy - 12.0 1026.4 0.0
25/07:00pm CALM 0 0 - - - - 10 Partly cloudy - 12.2 1026.1 0.0
25/06:30pm CALM 0 0 - - - - 10 Partly cloudy - 12.6 1025.7 0.0
25/06:02pm S 4 6 - - - - 10 Partly cloudy - 12.6 1025.2 0.0
25/06:00pm SSW 4 6 - - - - 10 Cloudy - 12.6 1025.2 0.0
25/05:42pm SSW 9 11 - - - - 10 Partly cloudy - 13.0 1025.1 0.0
25/05:30pm SW 7 9 - - - - 10 Cloudy - 13.5 1025.0 0.0
25/05:00pm SW 8 9 - - - - 10 Cloudy - 14.0 1024.8 0.0
25/04:30pm SW 14 18 - - - - 10 Cloudy - 13.6 1024.4 0.0
25/04:00pm SW 15 20 - - - - 10 Partly cloudy - 14.0 1024.3 0.0
25/03:30pm SW 9 12 - - - - 10 - - 16.2 1024.3 0.0
25/03:00pm SW 8 11 - - - - 10 Partly cloudy - 16.7 1024.2 0.0
25/02:30pm WSW 7 9 - - - - 10 Partly cloudy - 16.9 1024.3 0.0
25/02:00pm W 6 10 - - - - 10 Partly cloudy - 16.8 1024.5 0.0
25/01:30pm W 8 11 - - - - 10 Partly cloudy - 16.5 1024.8 0.0
25/01:00pm W 9 12 - - - - 10 Partly cloudy - 16.4 1025.2 0.0
25/12:30pm SSW 3 5 - - - - 10 Partly cloudy - 14.9 1025.5 0.0
25/12:00pm WNW 5 7 - - - - 10 Cloudy - 15.4 1025.8 0.0

Other formats

Comma delimited format used in spreadsheet applications
http://www.bom.gov.au/fwo/IDS60701/IDS60701.94653.axf

JavaScript Object Notation format (JSON) in row-major order
http://www.bom.gov.au/fwo/IDS60701/IDS60701.94653.json

Data quality

Most of these data are generated automatically and are frequently updated. Quality checks on data are not normally performed. It is possible for incorrect values to appear. Refer to information at About Latest Weather Observations and please check the disclaimer before using these data.